DNL Airport (Daniel Field) Information

FAA: DNL - ICAO: KDNL

DNL Airport Location

State Georgia
County Richmond
City Augusta
DNL Airport is 1 mile west of Augusta, GA.
Latitude 33-27-59.7000N
Longitude 082-02-21.8000W
Elevation 422ft

KDNL Airport METARs

METAR KDNL 071953Z AUTO 27007KT 230V330 10SM BKN065 24/18 A3025 RMK AO2 SLP240 T02440178
Altimeter 30.25"
Temperature 24.4°C (75.9°F)
Wind 270° at 7KT
Clouds broken at 6,500ft
Visibility 10.0mi
Time observed: 2022-12-07T19:53:00Z

DNL Airport Details

Status Operational
Activation April 1940
Ownership Public
Usage Public
Chart ATLANTA
ATC on-site No
Beacon schedule sunset-sunrise
Beacon color clear green

DNL Airport Contacts

Owner AUGUSTA-RICHMOND CO
Owner address 535 TELFAIR STREET, AUGUSTA, GA 30901
Owner phone (706) 821-2300
Manager RONALD ANDERSON
Manager address P.O. BOX 198, FT MEADE, SD 57741
Manager phone (404) 401-8189

DNL Airport (Daniel Field) Radio Frequencies

DNL (Airport) Radio Frequencies

UNICOM 123.05
Common traffic advisory frequency (CTAF) 123.05